sensor_id;sensor_type;location;lat;lon;timestamp;pressure;altitude;pressure_sealevel;temperature;humidity
36234;BME280;43467;50.890;5.982;2022-09-13T00:00:55;99770.28;;;20.97;55.10
36234;BME280;43467;50.890;5.982;2022-09-13T00:03:21;99764.88;;;20.97;54.87
36234;BME280;43467;50.890;5.982;2022-09-13T00:05:47;99763.03;;;20.97;55.73
36234;BME280;43467;50.890;5.982;2022-09-13T00:08:14;99768.88;;;20.93;55.19
36234;BME280;43467;50.890;5.982;2022-09-13T00:10:41;99773.94;;;20.96;54.65
36234;BME280;43467;50.890;5.982;2022-09-13T00:13:07;99780.34;;;20.95;54.78
36234;BME280;43467;50.890;5.982;2022-09-13T00:15:34;99784.03;;;20.94;55.08
36234;BME280;43467;50.890;5.982;2022-09-13T00:17:59;99781.91;;;20.87;54.35
36234;BME280;43467;50.890;5.982;2022-09-13T00:20:25;99774.28;;;20.83;54.08
36234;BME280;43467;50.890;5.982;2022-09-13T00:22:50;99774.03;;;20.76;53.86
36234;BME280;43467;50.890;5.982;2022-09-13T00:25:16;99776.28;;;20.71;54.55
36234;BME280;43467;50.890;5.982;2022-09-13T00:27:41;99775.03;;;20.66;54.19
36234;BME280;43467;50.890;5.982;2022-09-13T00:30:09;99766.38;;;20.62;54.58
36234;BME280;43467;50.890;5.982;2022-09-13T00:32:35;99760.56;;;20.67;54.57
36234;BME280;43467;50.890;5.982;2022-09-13T00:35:03;99758.19;;;20.64;54.75
36234;BME280;43467;50.890;5.982;2022-09-13T00:37:29;99755.06;;;20.59;54.32
36234;BME280;43467;50.890;5.982;2022-09-13T00:39:54;99749.00;;;20.57;54.46
36234;BME280;43467;50.890;5.982;2022-09-13T00:42:27;99745.59;;;20.55;54.48
36234;BME280;43467;50.890;5.982;2022-09-13T00:52:34;99759.59;;;20.58;54.71
36234;BME280;43467;50.890;5.982;2022-09-13T00:55:43;99754.22;;;20.58;54.49
36234;BME280;43467;50.890;5.982;2022-09-13T00:58:15;99742.06;;;20.54;54.14
36234;BME280;43467;50.890;5.982;2022-09-13T01:00:43;99737.28;;;20.48;54.64
36234;BME280;43467;50.890;5.982;2022-09-13T01:03:11;99741.94;;;20.56;54.12
36234;BME280;43467;50.890;5.982;2022-09-13T01:06:00;99746.88;;;20.51;54.39
36234;BME280;43467;50.890;5.982;2022-09-13T01:08:29;99734.16;;;20.43;54.75
36234;BME280;43467;50.890;5.982;2022-09-13T01:10:58;99735.16;;;20.42;54.75
36234;BME280;43467;50.890;5.982;2022-09-13T01:13:32;99738.13;;;20.39;54.85
36234;BME280;43467;50.890;5.982;2022-09-13T01:15:59;99732.94;;;20.37;54.22
36234;BME280;43467;50.890;5.982;2022-09-13T01:18:25;99735.44;;;20.39;54.94
36234;BME280;43467;50.890;5.982;2022-09-13T01:37:02;99726.25;;;20.42;54.41
36234;BME280;43467;50.890;5.982;2022-09-13T01:47:49;99705.00;;;20.48;54.36
36234;BME280;43467;50.890;5.982;2022-09-13T01:52:57;99693.41;;;20.38;54.11
36234;BME280;43467;50.890;5.982;2022-09-13T01:55:47;99695.53;;;20.44;53.29
36234;BME280;43467;50.890;5.982;2022-09-13T02:02:06;99681.34;;;20.52;53.50
36234;BME280;43467;50.890;5.982;2022-09-13T02:04:29;99675.72;;;20.45;54.10
36234;BME280;43467;50.890;5.982;2022-09-13T02:07:26;99679.50;;;20.52;53.39
36234;BME280;43467;50.890;5.982;2022-09-13T02:09:59;99678.66;;;20.52;53.25
36234;BME280;43467;50.890;5.982;2022-09-13T02:12:30;99683.91;;;20.53;52.87
36234;BME280;43467;50.890;5.982;2022-09-13T02:15:11;99685.44;;;20.56;53.11
36234;BME280;43467;50.890;5.982;2022-09-13T02:17:43;99679.94;;;20.57;53.10
36234;BME280;43467;50.890;5.982;2022-09-13T02:22:48;99684.59;;;20.55;52.67
36234;BME280;43467;50.890;5.982;2022-09-13T02:25:18;99679.75;;;20.59;52.79
36234;BME280;43467;50.890;5.982;2022-09-13T02:27:49;99679.50;;;20.62;52.58
36234;BME280;43467;50.890;5.982;2022-09-13T02:30:16;99676.81;;;20.62;52.12
36234;BME280;43467;50.890;5.982;2022-09-13T02:32:51;99663.19;;;20.63;52.81
36234;BME280;43467;50.890;5.982;2022-09-13T02:35:53;99671.25;;;20.63;52.37
36234;BME280;43467;50.890;5.982;2022-09-13T02:38:26;99648.63;;;20.56;52.02
36234;BME280;43467;50.890;5.982;2022-09-13T02:40:59;99664.88;;;20.64;51.80
36234;BME280;43467;50.890;5.982;2022-09-13T02:43:50;99668.44;;;20.65;52.21
36234;BME280;43467;50.890;5.982;2022-09-13T02:49:33;99667.28;;;20.67;51.92
36234;BME280;43467;50.890;5.982;2022-09-13T02:52:23;99664.44;;;20.69;51.72
36234;BME280;43467;50.890;5.982;2022-09-13T02:57:49;99665.13;;;20.71;51.47
36234;BME280;43467;50.890;5.982;2022-09-13T03:00:16;99669.69;;;20.70;51.51
36234;BME280;43467;50.890;5.982;2022-09-13T03:02:42;99670.94;;;20.66;51.30
36234;BME280;43467;50.890;5.982;2022-09-13T03:05:09;99666.59;;;20.65;51.19
36234;BME280;43467;50.890;5.982;2022-09-13T03:07:35;99653.41;;;20.62;51.06
36234;BME280;43467;50.890;5.982;2022-09-13T03:10:12;99658.53;;;20.65;51.10
36234;BME280;43467;50.890;5.982;2022-09-13T03:21:01;99663.28;;;20.71;51.15
36234;BME280;43467;50.890;5.982;2022-09-13T03:29:16;99684.13;;;20.69;51.88
36234;BME280;43467;50.890;5.982;2022-09-13T03:32:23;99684.81;;;20.71;52.06
36234;BME280;43467;50.890;5.982;2022-09-13T03:38:09;99696.53;;;20.80;52.03
36234;BME280;43467;50.890;5.982;2022-09-13T03:40:46;99699.09;;;20.81;52.17
36234;BME280;43467;50.890;5.982;2022-09-13T03:43:25;99698.09;;;20.82;52.28
36234;BME280;43467;50.890;5.982;2022-09-13T03:46:03;99708.88;;;20.82;52.67
36234;BME280;43467;50.890;5.982;2022-09-13T03:48:30;99699.09;;;20.81;52.85
36234;BME280;43467;50.890;5.982;2022-09-13T03:50:57;99707.59;;;20.77;52.36
36234;BME280;43467;50.890;5.982;2022-09-13T03:53:25;99698.28;;;20.71;52.35
36234;BME280;43467;50.890;5.982;2022-09-13T03:55:51;99695.47;;;20.63;52.06
36234;BME280;43467;50.890;5.982;2022-09-13T03:58:18;99698.75;;;20.57;52.42
36234;BME280;43467;50.890;5.982;2022-09-13T04:00:43;99702.13;;;20.59;52.68
36234;BME280;43467;50.890;5.982;2022-09-13T04:03:11;99702.72;;;20.53;52.65
36234;BME280;43467;50.890;5.982;2022-09-13T04:05:37;99697.78;;;20.49;52.92
36234;BME280;43467;50.890;5.982;2022-09-13T04:08:04;99705.00;;;20.48;53.48
36234;BME280;43467;50.890;5.982;2022-09-13T04:10:33;99716.75;;;20.47;53.42
36234;BME280;43467;50.890;5.982;2022-09-13T04:12:59;99707.56;;;20.50;53.97
36234;BME280;43467;50.890;5.982;2022-09-13T04:15:26;99705.84;;;20.49;53.47
36234;BME280;43467;50.890;5.982;2022-09-13T04:17:52;99710.81;;;20.44;53.85
36234;BME280;43467;50.890;5.982;2022-09-13T04:20:17;99710.25;;;20.50;53.49
36234;BME280;43467;50.890;5.982;2022-09-13T04:22:43;99720.41;;;20.46;53.81
36234;BME280;43467;50.890;5.982;2022-09-13T04:25:14;99705.84;;;20.49;53.72
36234;BME280;43467;50.890;5.982;2022-09-13T04:27:40;99709.66;;;20.46;53.49
36234;BME280;43467;50.890;5.982;2022-09-13T04:30:06;99695.41;;;20.46;53.83
36234;BME280;43467;50.890;5.982;2022-09-13T04:32:31;99699.38;;;20.42;53.96
36234;BME280;43467;50.890;5.982;2022-09-13T04:34:57;99694.81;;;20.42;53.37
36234;BME280;43467;50.890;5.982;2022-09-13T04:37:23;99697.38;;;20.44;53.68
36234;BME280;43467;50.890;5.982;2022-09-13T04:39:48;99692.53;;;20.47;53.34
36234;BME280;43467;50.890;5.982;2022-09-13T04:42:13;99694.69;;;20.44;53.15
36234;BME280;43467;50.890;5.982;2022-09-13T04:44:39;99693.41;;;20.48;53.65
36234;BME280;43467;50.890;5.982;2022-09-13T04:47:05;99691.56;;;20.48;53.63
36234;BME280;43467;50.890;5.982;2022-09-13T04:49:32;99691.13;;;20.53;53.50
36234;BME280;43467;50.890;5.982;2022-09-13T04:51:58;99689.84;;;20.47;53.28
36234;BME280;43467;50.890;5.982;2022-09-13T04:54:23;99692.00;;;20.44;52.72
36234;BME280;43467;50.890;5.982;2022-09-13T04:56:48;99679.69;;;20.41;52.85
36234;BME280;43467;50.890;5.982;2022-09-13T04:59:14;99688.88;;;20.48;52.76
36234;BME280;43467;50.890;5.982;2022-09-13T05:01:40;99693.53;;;20.46;52.99
36234;BME280;43467;50.890;5.982;2022-09-13T05:04:06;99690.16;;;20.44;52.92
36234;BME280;43467;50.890;5.982;2022-09-13T05:06:32;99688.88;;;20.48;53.06
36234;BME280;43467;50.890;5.982;2022-09-13T05:08:58;99688.16;;;20.46;52.77
36234;BME280;43467;50.890;5.982;2022-09-13T05:11:25;99690.41;;;20.51;52.75
36234;BME280;43467;50.890;5.982;2022-09-13T05:13:52;99693.66;;;20.54;52.91
36234;BME280;43467;50.890;5.982;2022-09-13T05:16:20;99690.69;;;20.57;53.02
36234;BME280;43467;50.890;5.982;2022-09-13T05:18:45;99691.38;;;20.59;52.75
36234;BME280;43467;50.890;5.982;2022-09-13T05:21:11;99691.38;;;20.59;52.78
36234;BME280;43467;50.890;5.982;2022-09-13T05:23:36;99688.56;;;20.61;52.58
36234;BME280;43467;50.890;5.982;2022-09-13T05:26:04;99694.38;;;20.56;52.82
36234;BME280;43467;50.890;5.982;2022-09-13T05:28:35;99696.75;;;20.59;52.94
36234;BME280;43467;50.890;5.982;2022-09-13T05:31:18;99696.75;;;20.59;52.69
36234;BME280;43467;50.890;5.982;2022-09-13T05:33:46;99691.38;;;20.59;52.67
36234;BME280;43467;50.890;5.982;2022-09-13T05:36:12;99699.59;;;20.58;52.79
36234;BME280;43467;50.890;5.982;2022-09-13T05:38:37;99688.56;;;20.61;52.83
36234;BME280;43467;50.890;5.982;2022-09-13T05:41:04;99691.94;;;20.63;52.70
36234;BME280;43467;50.890;5.982;2022-09-13T05:43:34;99692.63;;;20.65;52.86
36234;BME280;43467;50.890;5.982;2022-09-13T05:46:08;99689.09;;;20.64;52.67
36234;BME280;43467;50.890;5.982;2022-09-13T05:48:35;99698.03;;;20.65;52.71
36234;BME280;43467;50.890;5.982;2022-09-13T05:51:10;99706.63;;;20.68;52.79
36234;BME280;43467;50.890;5.982;2022-09-13T05:53:40;99707.63;;;20.67;53.09
36234;BME280;43467;50.890;5.982;2022-09-13T05:56:27;99715.69;;;20.67;52.87
36234;BME280;43467;50.890;5.982;2022-09-13T05:58:53;99715.69;;;20.67;52.82
36234;BME280;43467;50.890;5.982;2022-09-13T06:01:24;99716.31;;;20.61;53.61
36234;BME280;43467;50.890;5.982;2022-09-13T06:03:51;99717.69;;;20.65;53.63
36234;BME280;43467;50.890;5.982;2022-09-13T06:06:18;99718.94;;;20.71;53.22
36234;BME280;43467;50.890;5.982;2022-09-13T06:08:44;99708.91;;;20.73;53.43
36234;BME280;43467;50.890;5.982;2022-09-13T06:11:11;99705.06;;;20.75;53.90
36234;BME280;43467;50.890;5.982;2022-09-13T06:13:37;99706.88;;;20.75;53.57
36234;BME280;43467;50.890;5.982;2022-09-13T06:16:08;99707.47;;;20.78;53.38
36234;BME280;43467;50.890;5.982;2022-09-13T06:18:34;99709.13;;;20.79;53.73
36234;BME280;43467;50.890;5.982;2022-09-13T06:21:08;99713.13;;;20.75;54.22
36234;BME280;43467;50.890;5.982;2022-09-13T06:23:34;99710.97;;;20.79;53.83
36234;BME280;43467;50.890;5.982;2022-09-13T06:26:03;99712.97;;;20.77;54.05
36234;BME280;43467;50.890;5.982;2022-09-13T06:28:29;99714.13;;;20.74;54.67
36234;BME280;43467;50.890;5.982;2022-09-13T06:31:02;99703.06;;;20.77;54.63
36234;BME280;43467;50.890;5.982;2022-09-13T06:33:27;99703.06;;;20.77;54.54
36234;BME280;43467;50.890;5.982;2022-09-13T06:35:53;99708.16;;;20.80;54.25
36234;BME280;43467;50.890;5.982;2022-09-13T06:38:18;99707.16;;;20.81;54.33
36234;BME280;43467;50.890;5.982;2022-09-13T06:40:44;99705.44;;;20.90;54.50
36234;BME280;43467;50.890;5.982;2022-09-13T06:43:09;99708.50;;;20.95;54.60
36234;BME280;43467;50.890;5.982;2022-09-13T06:45:35;99702.69;;;21.00;54.67
36234;BME280;43467;50.890;5.982;2022-09-13T06:48:02;99703.22;;;21.03;54.42
36234;BME280;43467;50.890;5.982;2022-09-13T06:50:27;99706.75;;;21.04;54.77
36234;BME280;43467;50.890;5.982;2022-09-13T06:52:52;99708.47;;;21.05;54.37
36234;BME280;43467;50.890;5.982;2022-09-13T06:55:20;99709.31;;;21.05;54.57
36234;BME280;43467;50.890;5.982;2022-09-13T06:57:46;99719.78;;;21.08;54.19
36234;BME280;43467;50.890;5.982;2022-09-13T07:00:11;99701.94;;;21.07;54.17
36234;BME280;43467;50.890;5.982;2022-09-13T07:02:37;99711.28;;;21.13;54.60
36234;BME280;43467;50.890;5.982;2022-09-13T07:05:02;99713.97;;;21.13;54.89
36234;BME280;43467;50.890;5.982;2022-09-13T07:07:28;99713.53;;;21.17;54.89
36234;BME280;43467;50.890;5.982;2022-09-13T07:09:53;99709.41;;;21.23;54.82
36234;BME280;43467;50.890;5.982;2022-09-13T07:12:18;99716.31;;;21.25;54.75
36234;BME280;43467;50.890;5.982;2022-09-13T07:14:44;99719.88;;;21.26;55.04
36234;BME280;43467;50.890;5.982;2022-09-13T07:17:09;99711.09;;;21.24;54.92
36234;BME280;43467;50.890;5.982;2022-09-13T07:19:34;99702.88;;;21.25;55.05
36234;BME280;43467;50.890;5.982;2022-09-13T07:22:00;99705.78;;;21.32;55.04
36234;BME280;43467;50.890;5.982;2022-09-13T07:24:25;99708.88;;;21.37;55.03
36234;BME280;43467;50.890;5.982;2022-09-13T07:26:51;99711.34;;;21.30;55.12
36234;BME280;43467;50.890;5.982;2022-09-13T07:29:19;99709.88;;;21.36;55.03
36234;BME280;43467;50.890;5.982;2022-09-13T07:31:48;99711.75;;;21.36;54.87
36234;BME280;43467;50.890;5.982;2022-09-13T07:34:15;99707.44;;;21.43;54.66
36234;BME280;43467;50.890;5.982;2022-09-13T07:36:42;99715.22;;;21.46;54.67
36234;BME280;43467;50.890;5.982;2022-09-13T07:39:07;99715.66;;;21.41;54.82
36234;BME280;43467;50.890;5.982;2022-09-13T07:41:33;99713.38;;;21.46;55.17
36234;BME280;43467;50.890;5.982;2022-09-13T07:43:59;99704.28;;;21.47;55.12
36234;BME280;43467;50.890;5.982;2022-09-13T07:46:27;99704.38;;;21.55;54.50
36234;BME280;43467;50.890;5.982;2022-09-13T07:48:54;99707.75;;;21.57;54.40
36234;BME280;43467;50.890;5.982;2022-09-13T07:51:25;99700.75;;;21.64;54.56
36234;BME280;43467;50.890;5.982;2022-09-13T07:53:54;99711.53;;;21.64;54.94
36234;BME280;43467;50.890;5.982;2022-09-13T07:56:23;99709.41;;;21.68;54.72
36234;BME280;43467;50.890;5.982;2022-09-13T07:58:50;99707.84;;;21.65;54.45
36234;BME280;43467;50.890;5.982;2022-09-13T08:01:25;99712.09;;;21.68;54.74
36234;BME280;43467;50.890;5.982;2022-09-13T08:04:11;99714.63;;;21.69;54.83
36234;BME280;43467;50.890;5.982;2022-09-13T08:06:38;99714.31;;;21.72;55.13
36234;BME280;43467;50.890;5.982;2022-09-13T08:09:06;99715.41;;;21.79;55.21
36234;BME280;43467;50.890;5.982;2022-09-13T08:11:36;99720.69;;;21.89;54.92
36234;BME280;43467;50.890;5.982;2022-09-13T08:14:03;99721.41;;;21.91;55.48
36234;BME280;43467;50.890;5.982;2022-09-13T08:16:29;99712.63;;;22.07;54.70
36234;BME280;43467;50.890;5.982;2022-09-13T08:18:57;99717.88;;;22.08;54.95
36234;BME280;43467;50.890;5.982;2022-09-13T08:21:23;99712.97;;;22.04;55.46
36234;BME280;43467;50.890;5.982;2022-09-13T08:23:53;99718.16;;;22.23;54.63
36234;BME280;43467;50.890;5.982;2022-09-13T08:26:19;99718.63;;;22.18;54.51
36234;BME280;43467;50.890;5.982;2022-09-13T08:28:44;99725.19;;;22.16;54.02
36234;BME280;43467;50.890;5.982;2022-09-13T08:31:11;99728.22;;;22.13;54.07
36234;BME280;43467;50.890;5.982;2022-09-13T08:33:38;99730.66;;;22.06;54.83
36234;BME280;43467;50.890;5.982;2022-09-13T08:36:04;99720.13;;;22.13;54.95
36234;BME280;43467;50.890;5.982;2022-09-13T08:38:30;99734.72;;;22.28;55.15
36234;BME280;43467;50.890;5.982;2022-09-13T08:43:58;99733.16;;;22.43;54.69
36234;BME280;43467;50.890;5.982;2022-09-13T08:46:39;99726.53;;;22.38;54.65
36234;BME280;43467;50.890;5.982;2022-09-13T08:49:10;99731.91;;;22.38;54.55
36234;BME280;43467;50.890;5.982;2022-09-13T08:51:41;99734.41;;;22.31;55.38
36234;BME280;43467;50.890;5.982;2022-09-13T08:54:10;99729.28;;;22.46;54.66
36234;BME280;43467;50.890;5.982;2022-09-13T08:57:00;99740.38;;;22.60;54.58
36234;BME280;43467;50.890;5.982;2022-09-13T09:02:44;99744.53;;;22.73;54.90
36234;BME280;43467;50.890;5.982;2022-09-13T09:05:18;99748.28;;;22.80;54.87
36234;BME280;43467;50.890;5.982;2022-09-13T09:07:56;99744.56;;;22.81;54.32
36234;BME280;43467;50.890;5.982;2022-09-13T09:10:53;99737.13;;;22.83;54.46
36234;BME280;43467;50.890;5.982;2022-09-13T09:13:29;99743.19;;;22.77;54.92
36234;BME280;43467;50.890;5.982;2022-09-13T09:16:00;99750.06;;;22.97;54.76
36234;BME280;43467;50.890;5.982;2022-09-13T09:18:32;99754.09;;;22.93;54.67
36234;BME280;43467;50.890;5.982;2022-09-13T09:21:00;99745.66;;;22.96;54.48
36234;BME280;43467;50.890;5.982;2022-09-13T09:23:40;99744.66;;;22.97;54.75
36234;BME280;43467;50.890;5.982;2022-09-13T09:26:17;99749.31;;;22.87;54.12
36234;BME280;43467;50.890;5.982;2022-09-13T09:28:46;99753.38;;;22.91;54.32
36234;BME280;43467;50.890;5.982;2022-09-13T09:36:45;99753.94;;;22.94;54.66
36234;BME280;43467;50.890;5.982;2022-09-13T09:39:14;99747.25;;;23.06;54.47
36234;BME280;43467;50.890;5.982;2022-09-13T09:41:42;99739.34;;;23.13;54.87
36234;BME280;43467;50.890;5.982;2022-09-13T09:46:36;99741.63;;;23.34;54.00
36234;BME280;43467;50.890;5.982;2022-09-13T09:49:16;99742.09;;;23.29;54.73
36234;BME280;43467;50.890;5.982;2022-09-13T09:52:01;99742.06;;;23.21;54.86
36234;BME280;43467;50.890;5.982;2022-09-13T09:54:32;99734.69;;;23.31;54.24
36234;BME280;43467;50.890;5.982;2022-09-13T09:56:59;99739.25;;;23.31;54.80
36234;BME280;43467;50.890;5.982;2022-09-13T09:59:30;99736.72;;;23.37;55.41
36234;BME280;43467;50.890;5.982;2022-09-13T10:02:00;99727.28;;;23.41;54.27
36234;BME280;43467;50.890;5.982;2022-09-13T10:04:29;99726.13;;;23.44;54.07
36234;BME280;43467;50.890;5.982;2022-09-13T10:09:58;99726.69;;;23.55;53.59
36234;BME280;43467;50.890;5.982;2022-09-13T10:12:28;99721.97;;;23.66;54.04
36234;BME280;43467;50.890;5.982;2022-09-13T10:15:14;99712.19;;;23.73;53.62
36234;BME280;43467;50.890;5.982;2022-09-13T10:17:42;99709.19;;;23.84;53.01
36234;BME280;43467;50.890;5.982;2022-09-13T10:22:39;99710.84;;;23.77;53.05
36234;BME280;43467;50.890;5.982;2022-09-13T10:27:40;99696.66;;;23.75;52.96
36234;BME280;43467;50.890;5.982;2022-09-13T10:30:36;99701.06;;;23.84;53.09
36234;BME280;43467;50.890;5.982;2022-09-13T10:33:02;99699.72;;;23.96;53.08
36234;BME280;43467;50.890;5.982;2022-09-13T10:35:29;99696.00;;;23.97;52.06
36234;BME280;43467;50.890;5.982;2022-09-13T10:37:55;99692.13;;;24.07;52.65
36234;BME280;43467;50.890;5.982;2022-09-13T10:40:30;99690.78;;;24.03;52.19
36234;BME280;43467;50.890;5.982;2022-09-13T10:43:05;99684.88;;;24.16;52.72
36234;BME280;43467;50.890;5.982;2022-09-13T10:45:37;99683.34;;;24.22;52.91
36234;BME280;43467;50.890;5.982;2022-09-13T10:48:16;99681.81;;;24.27;51.79
36234;BME280;43467;50.890;5.982;2022-09-13T10:53:38;99673.84;;;24.34;51.39
36234;BME280;43467;50.890;5.982;2022-09-13T10:56:07;99665.09;;;24.32;51.73
36234;BME280;43467;50.890;5.982;2022-09-13T10:58:43;99665.22;;;24.46;51.53
36234;BME280;43467;50.890;5.982;2022-09-13T11:01:17;99661.47;;;24.56;51.04
36234;BME280;43467;50.890;5.982;2022-09-13T11:03:55;99660.59;;;24.63;50.90
36234;BME280;43467;50.890;5.982;2022-09-13T11:06:50;99659.25;;;24.67;49.94
36234;BME280;43467;50.890;5.982;2022-09-13T11:37:10;99651.44;;;24.72;48.02
36234;BME280;43467;50.890;5.982;2022-09-13T11:42:50;99662.69;;;24.53;48.18
36234;BME280;43467;50.890;5.982;2022-09-13T11:45:23;99666.06;;;24.47;47.91
36234;BME280;43467;50.890;5.982;2022-09-13T11:48:29;99662.84;;;24.51;48.15
36234;BME280;43467;50.890;5.982;2022-09-13T11:56:24;99657.72;;;24.65;49.23
36234;BME280;43467;50.890;5.982;2022-09-13T11:58:55;99648.56;;;24.74;49.01
36234;BME280;43467;50.890;5.982;2022-09-13T12:01:27;99656.34;;;24.85;49.51
36234;BME280;43467;50.890;5.982;2022-09-13T12:06:47;99655.25;;;25.02;49.19
36234;BME280;43467;50.890;5.982;2022-09-13T12:09:15;99655.91;;;25.04;48.16
36234;BME280;43467;50.890;5.982;2022-09-13T12:11:58;99655.38;;;25.09;48.29
36234;BME280;43467;50.890;5.982;2022-09-13T12:14:29;99647.78;;;25.04;48.17
36234;BME280;43467;50.890;5.982;2022-09-13T12:17:03;99645.84;;;24.90;47.80
36234;BME280;43467;50.890;5.982;2022-09-13T12:19:45;99651.41;;;24.88;47.68
36234;BME280;43467;50.890;5.982;2022-09-13T12:22:15;99658.34;;;24.91;47.98
36234;BME280;43467;50.890;5.982;2022-09-13T12:24:49;99656.84;;;24.88;47.68
36234;BME280;43467;50.890;5.982;2022-09-13T12:29:50;99635.00;;;24.90;48.18
36234;BME280;43467;50.890;5.982;2022-09-13T12:32:17;99631.22;;;24.99;48.19
36234;BME280;43467;50.890;5.982;2022-09-13T12:34:57;99627.44;;;25.08;48.28
36234;BME280;43467;50.890;5.982;2022-09-13T12:52:05;99623.91;;;25.84;45.51
36234;BME280;43467;50.890;5.982;2022-09-13T12:54:58;99624.75;;;25.84;45.62
36234;BME280;43467;50.890;5.982;2022-09-13T12:58:02;99619.53;;;25.83;44.76
36234;BME280;43467;50.890;5.982;2022-09-13T13:00:37;99613.69;;;25.71;44.48
36234;BME280;43467;50.890;5.982;2022-09-13T13:05:48;99604.88;;;25.69;44.78
36234;BME280;43467;50.890;5.982;2022-09-13T13:11:11;99610.09;;;25.94;44.35
36234;BME280;43467;50.890;5.982;2022-09-13T13:13:43;99602.56;;;25.81;43.95
36234;BME280;43467;50.890;5.982;2022-09-13T13:16:24;99619.06;;;25.79;44.90
36234;BME280;43467;50.890;5.982;2022-09-13T13:18:51;99609.09;;;25.72;45.75
36234;BME280;43467;50.890;5.982;2022-09-13T13:21:26;99607.28;;;25.64;45.13
36234;BME280;43467;50.890;5.982;2022-09-13T13:26:52;99612.78;;;25.56;46.06
36234;BME280;43467;50.890;5.982;2022-09-13T13:29:26;99618.19;;;25.56;45.65
36234;BME280;43467;50.890;5.982;2022-09-13T13:34:29;99600.25;;;25.78;45.76
36234;BME280;43467;50.890;5.982;2022-09-13T13:39:46;99600.25;;;25.92;45.13
36234;BME280;43467;50.890;5.982;2022-09-13T13:42:24;99596.06;;;25.90;44.60
36234;BME280;43467;50.890;5.982;2022-09-13T13:49:49;99596.44;;;25.87;45.08
36234;BME280;43467;50.890;5.982;2022-09-13T14:00:22;99604.97;;;25.76;44.38
36234;BME280;43467;50.890;5.982;2022-09-13T14:03:05;99606.44;;;25.86;44.67
36234;BME280;43467;50.890;5.982;2022-09-13T14:05:40;99605.22;;;25.89;44.50
36234;BME280;43467;50.890;5.982;2022-09-13T14:11:09;99587.19;;;25.96;46.10
36234;BME280;43467;50.890;5.982;2022-09-13T14:13:45;99583.81;;;25.94;44.80
36234;BME280;43467;50.890;5.982;2022-09-13T14:24:54;99586.19;;;25.74;45.63
36234;BME280;43467;50.890;5.982;2022-09-13T14:27:25;99598.97;;;25.66;46.00
36234;BME280;43467;50.890;5.982;2022-09-13T14:29:57;99598.88;;;25.59;46.18
36234;BME280;43467;50.890;5.982;2022-09-13T14:32:26;99594.63;;;25.57;46.49
36234;BME280;43467;50.890;5.982;2022-09-13T14:35:00;99596.88;;;25.53;46.82
36234;BME280;43467;50.890;5.982;2022-09-13T14:37:32;99594.25;;;25.37;47.11
36234;BME280;43467;50.890;5.982;2022-09-13T14:43:01;99585.28;;;25.14;47.53
36234;BME280;43467;50.890;5.982;2022-09-13T14:45:38;99604.41;;;25.12;48.53
36234;BME280;43467;50.890;5.982;2022-09-13T14:48:38;99599.66;;;25.14;48.23
36234;BME280;43467;50.890;5.982;2022-09-13T14:51:15;99596.28;;;25.12;48.69
36234;BME280;43467;50.890;5.982;2022-09-13T14:53:44;99603.59;;;25.04;49.77
36234;BME280;43467;50.890;5.982;2022-09-13T14:58:49;99606.19;;;24.97;51.71
36234;BME280;43467;50.890;5.982;2022-09-13T15:01:19;99607.72;;;24.91;52.28
36234;BME280;43467;50.890;5.982;2022-09-13T15:03:47;99608.44;;;24.77;51.24
36234;BME280;43467;50.890;5.982;2022-09-13T15:06:25;99598.78;;;24.75;51.72
36234;BME280;43467;50.890;5.982;2022-09-13T15:08:52;99602.53;;;24.74;52.00
36234;BME280;43467;50.890;5.982;2022-09-13T15:11:31;99598.63;;;24.76;52.68
36234;BME280;43467;50.890;5.982;2022-09-13T15:14:33;99599.16;;;24.72;53.11
36234;BME280;43467;50.890;5.982;2022-09-13T15:17:09;99605.44;;;24.64;52.76
36234;BME280;43467;50.890;5.982;2022-09-13T15:19:43;99596.84;;;24.61;52.57
36234;BME280;43467;50.890;5.982;2022-09-13T15:24:42;99599.09;;;24.49;54.34
36234;BME280;43467;50.890;5.982;2022-09-13T15:27:26;99597.03;;;24.51;54.35
36234;BME280;43467;50.890;5.982;2022-09-13T15:29:55;99599.38;;;24.54;54.67
36234;BME280;43467;50.890;5.982;2022-09-13T15:32:27;99602.81;;;24.48;55.69
36234;BME280;43467;50.890;5.982;2022-09-13T15:34:56;99607.22;;;24.41;55.94
36234;BME280;43467;50.890;5.982;2022-09-13T15:37:34;99601.50;;;24.28;57.08
36234;BME280;43467;50.890;5.982;2022-09-13T15:40:21;99609.78;;;24.26;58.19
36234;BME280;43467;50.890;5.982;2022-09-13T15:42:51;99618.09;;;24.25;57.03
36234;BME280;43467;50.890;5.982;2022-09-13T15:45:18;99619.63;;;24.19;58.77
36234;BME280;43467;50.890;5.982;2022-09-13T15:47:46;99620.25;;;24.13;59.14
36234;BME280;43467;50.890;5.982;2022-09-13T15:50:24;99622.66;;;24.00;60.68
36234;BME280;43467;50.890;5.982;2022-09-13T15:52:52;99622.81;;;23.90;61.43
36234;BME280;43467;50.890;5.982;2022-09-13T15:55:17;99622.97;;;23.89;62.35
36234;BME280;43467;50.890;5.982;2022-09-13T15:57:43;99619.28;;;23.74;60.73
36234;BME280;43467;50.890;5.982;2022-09-13T16:00:15;99615.91;;;23.72;61.59
36234;BME280;43467;50.890;5.982;2022-09-13T16:02:41;99633.78;;;23.56;62.92
36234;BME280;43467;50.890;5.982;2022-09-13T16:05:07;99627.72;;;23.54;62.86
36234;BME280;43467;50.890;5.982;2022-09-13T16:07:32;99630.41;;;23.54;62.55
36234;BME280;43467;50.890;5.982;2022-09-13T16:09:58;99621.81;;;23.51;64.17
36234;BME280;43467;50.890;5.982;2022-09-13T16:12:23;99623.16;;;23.47;63.86
36234;BME280;43467;50.890;5.982;2022-09-13T16:14:51;99613.50;;;23.44;64.94
36234;BME280;43467;50.890;5.982;2022-09-13T16:17:26;99620.03;;;23.26;64.46
36234;BME280;43467;50.890;5.982;2022-09-13T16:19:53;99616.63;;;23.15;65.62
36234;BME280;43467;50.890;5.982;2022-09-13T16:22:19;99618.78;;;23.04;66.11
36234;BME280;43467;50.890;5.982;2022-09-13T16:24:44;99622.78;;;22.92;66.46
36234;BME280;43467;50.890;5.982;2022-09-13T16:27:14;99614.53;;;22.85;67.53
36234;BME280;43467;50.890;5.982;2022-09-13T16:29:41;99624.09;;;22.80;65.90
36234;BME280;43467;50.890;5.982;2022-09-13T16:32:07;99625.19;;;22.61;68.17